sensor_id;sensor_type;location;lat;lon;timestamp;pressure;altitude;pressure_sealevel;temperature;humidity
49397;BME280;35615;41.410;2.194;2023-04-05T00:01:14;101753.19;;;17.06;42.37
49397;BME280;35615;41.410;2.194;2023-04-05T00:03:44;101753.63;;;16.90;42.89
49397;BME280;35615;41.410;2.194;2023-04-05T00:06:15;101753.03;;;17.00;42.66
49397;BME280;35615;41.410;2.194;2023-04-05T00:08:46;101752.13;;;16.98;42.90
49397;BME280;35615;41.410;2.194;2023-04-05T00:11:20;101747.19;;;17.09;42.71
49397;BME280;35615;41.410;2.194;2023-04-05T00:13:49;101743.88;;;17.16;42.44
49397;BME280;35615;41.410;2.194;2023-04-05T00:16:17;101740.16;;;17.06;42.63
49397;BME280;35615;41.410;2.194;2023-04-05T00:18:50;101735.09;;;17.12;42.56
49397;BME280;35615;41.410;2.194;2023-04-05T00:21:23;101744.72;;;16.83;43.47
49397;BME280;35615;41.410;2.194;2023-04-05T00:23:57;101741.56;;;16.95;43.09
49397;BME280;35615;41.410;2.194;2023-04-05T00:26:25;101741.75;;;17.01;43.04
49397;BME280;35615;41.410;2.194;2023-04-05T00:28:57;101752.50;;;17.12;42.56
49397;BME280;35615;41.410;2.194;2023-04-05T00:31:25;101737.94;;;16.89;43.37
49397;BME280;35615;41.410;2.194;2023-04-05T00:33:53;101741.28;;;16.84;43.62
49397;BME280;35615;41.410;2.194;2023-04-05T00:36:21;101744.56;;;16.77;43.38
49397;BME280;35615;41.410;2.194;2023-04-05T00:38:49;101744.06;;;16.62;43.80
49397;BME280;35615;41.410;2.194;2023-04-05T00:41:20;101741.03;;;16.75;43.53
49397;BME280;35615;41.410;2.194;2023-04-05T00:43:53;101750.03;;;16.58;43.91
49397;BME280;35615;41.410;2.194;2023-04-05T00:46:23;101736.59;;;16.73;43.20
49397;BME280;35615;41.410;2.194;2023-04-05T00:48:54;101736.34;;;16.65;43.84
49397;BME280;35615;41.410;2.194;2023-04-05T00:51:22;101739.00;;;16.67;43.68
49397;BME280;35615;41.410;2.194;2023-04-05T00:54:01;101737.41;;;16.70;43.78
49397;BME280;35615;41.410;2.194;2023-04-05T00:56:32;101737.00;;;16.58;44.25
49397;BME280;35615;41.410;2.194;2023-04-05T00:59:00;101739.66;;;16.60;43.83
49397;BME280;35615;41.410;2.194;2023-04-05T01:01:32;101737.19;;;16.64;44.10
49397;BME280;35615;41.410;2.194;2023-04-05T01:04:09;101735.31;;;16.60;44.07
49397;BME280;35615;41.410;2.194;2023-04-05T01:09:28;101737.25;;;16.37;44.82
49397;BME280;35615;41.410;2.194;2023-04-05T01:12:05;101732.34;;;16.48;44.29
49397;BME280;35615;41.410;2.194;2023-04-05T01:14:51;101733.28;;;16.50;44.46
49397;BME280;35615;41.410;2.194;2023-04-05T01:17:23;101729.75;;;16.48;44.35
49397;BME280;35615;41.410;2.194;2023-04-05T01:19:59;101736.19;;;16.31;44.91
49397;BME280;35615;41.410;2.194;2023-04-05T01:22:41;101732.84;;;16.35;44.58
49397;BME280;35615;41.410;2.194;2023-04-05T01:25:32;101726.84;;;16.39;44.67
49397;BME280;35615;41.410;2.194;2023-04-05T01:31:14;101734.28;;;16.25;44.77
49397;BME280;35615;41.410;2.194;2023-04-05T01:34:04;101743.78;;;16.23;44.90
49397;BME280;35615;41.410;2.194;2023-04-05T01:36:44;101732.41;;;16.21;45.23
49397;BME280;35615;41.410;2.194;2023-04-05T01:39:16;101740.91;;;16.15;45.39
49397;BME280;35615;41.410;2.194;2023-04-05T01:41:46;101738.34;;;16.17;45.09
49397;BME280;35615;41.410;2.194;2023-04-05T01:44:14;101737.31;;;16.10;45.38
49397;BME280;35615;41.410;2.194;2023-04-05T01:46:41;101724.69;;;16.24;44.79
49397;BME280;35615;41.410;2.194;2023-04-05T01:49:09;101733.84;;;16.11;45.25
49397;BME280;35615;41.410;2.194;2023-04-05T01:51:37;101726.16;;;16.16;44.97
49397;BME280;35615;41.410;2.194;2023-04-05T01:54:08;101722.34;;;16.05;45.51
49397;BME280;35615;41.410;2.194;2023-04-05T01:56:36;101726.31;;;15.93;45.84
49397;BME280;35615;41.410;2.194;2023-04-05T01:59:03;101731.78;;;16.01;45.56
49397;BME280;35615;41.410;2.194;2023-04-05T02:01:34;101731.75;;;16.00;45.69
49397;BME280;35615;41.410;2.194;2023-04-05T02:04:01;101737.88;;;16.02;45.40
49397;BME280;35615;41.410;2.194;2023-04-05T02:06:32;101736.75;;;15.93;45.73
49397;BME280;35615;41.410;2.194;2023-04-05T02:09:01;101733.75;;;16.08;45.11
49397;BME280;35615;41.410;2.194;2023-04-05T02:11:31;101735.19;;;15.98;45.65
49397;BME280;35615;41.410;2.194;2023-04-05T02:14:02;101726.84;;;16.09;45.44
49397;BME280;35615;41.410;2.194;2023-04-05T02:16:30;101729.59;;;15.86;46.23
49397;BME280;35615;41.410;2.194;2023-04-05T02:19:03;101726.38;;;15.95;45.90
49397;BME280;35615;41.410;2.194;2023-04-05T02:21:34;101724.66;;;15.95;45.69
49397;BME280;35615;41.410;2.194;2023-04-05T02:24:02;101725.59;;;15.71;46.50
49397;BME280;35615;41.410;2.194;2023-04-05T02:26:33;101712.50;;;15.69;46.60
49397;BME280;35615;41.410;2.194;2023-04-05T02:29:01;101710.09;;;15.50;47.20
49397;BME280;35615;41.410;2.194;2023-04-05T02:31:32;101713.22;;;15.63;46.63
49397;BME280;35615;41.410;2.194;2023-04-05T02:34:04;101713.75;;;15.80;46.24
49397;BME280;35615;41.410;2.194;2023-04-05T02:36:34;101712.34;;;15.63;47.14
49397;BME280;35615;41.410;2.194;2023-04-05T02:39:08;101708.41;;;15.76;46.22
49397;BME280;35615;41.410;2.194;2023-04-05T02:41:45;101711.84;;;15.75;46.57
49397;BME280;35615;41.410;2.194;2023-04-05T02:44:15;101706.56;;;15.73;46.76
49397;BME280;35615;41.410;2.194;2023-04-05T02:46:47;101712.56;;;15.71;46.58
49397;BME280;35615;41.410;2.194;2023-04-05T02:49:28;101716.59;;;15.61;46.88
49397;BME280;35615;41.410;2.194;2023-04-05T02:51:59;101704.19;;;15.54;46.74
49397;BME280;35615;41.410;2.194;2023-04-05T02:54:27;101709.13;;;15.46;47.35
49397;BME280;35615;41.410;2.194;2023-04-05T02:57:00;101702.72;;;15.36;47.63
49397;BME280;35615;41.410;2.194;2023-04-05T03:02:43;101703.97;;;15.48;47.11
49397;BME280;35615;41.410;2.194;2023-04-05T03:05:10;101696.91;;;15.44;47.35
49397;BME280;35615;41.410;2.194;2023-04-05T03:07:42;101699.00;;;15.55;46.82
49397;BME280;35615;41.410;2.194;2023-04-05T03:10:13;101702.16;;;15.45;47.71
49397;BME280;35615;41.410;2.194;2023-04-05T03:12:41;101710.56;;;15.38;47.62
49397;BME280;35615;41.410;2.194;2023-04-05T03:15:10;101706.41;;;15.43;47.41
49397;BME280;35615;41.410;2.194;2023-04-05T03:17:42;101710.25;;;15.29;47.95
49397;BME280;35615;41.410;2.194;2023-04-05T03:20:12;101712.28;;;15.37;47.62
49397;BME280;35615;41.410;2.194;2023-04-05T03:22:40;101708.44;;;15.26;47.85
49397;BME280;35615;41.410;2.194;2023-04-05T03:25:10;101709.28;;;15.25;47.80
49397;BME280;35615;41.410;2.194;2023-04-05T03:27:44;101708.72;;;15.08;48.73
49397;BME280;35615;41.410;2.194;2023-04-05T03:30:16;101710.22;;;15.27;47.64
49397;BME280;35615;41.410;2.194;2023-04-05T03:32:51;101709.22;;;15.24;47.97
49397;BME280;35615;41.410;2.194;2023-04-05T03:35:33;101706.41;;;15.18;48.20
49397;BME280;35615;41.410;2.194;2023-04-05T03:38:01;101701.31;;;15.21;48.21
49397;BME280;35615;41.410;2.194;2023-04-05T03:40:29;101710.25;;;15.29;47.85
49397;BME280;35615;41.410;2.194;2023-04-05T03:42:56;101708.25;;;15.20;47.93
49397;BME280;35615;41.410;2.194;2023-04-05T03:45:24;101710.84;;;15.20;47.72
49397;BME280;35615;41.410;2.194;2023-04-05T03:47:51;101709.28;;;15.25;47.77
49397;BME280;35615;41.410;2.194;2023-04-05T03:50:20;101704.53;;;15.14;47.99
49397;BME280;35615;41.410;2.194;2023-04-05T03:52:47;101706.56;;;15.22;47.60
49397;BME280;35615;41.410;2.194;2023-04-05T03:55:15;101717.31;;;15.07;48.09
49397;BME280;35615;41.410;2.194;2023-04-05T03:57:46;101710.00;;;15.21;47.70
49397;BME280;35615;41.410;2.194;2023-04-05T04:00:28;101707.09;;;15.12;47.83
49397;BME280;35615;41.410;2.194;2023-04-05T04:03:22;101714.16;;;15.16;47.86
49397;BME280;35615;41.410;2.194;2023-04-05T04:05:53;101709.78;;;15.15;47.74
49397;BME280;35615;41.410;2.194;2023-04-05T04:08:20;101702.03;;;15.17;47.94
49397;BME280;35615;41.410;2.194;2023-04-05T04:10:51;101707.19;;;15.15;47.88
49397;BME280;35615;41.410;2.194;2023-04-05T04:13:24;101701.16;;;15.16;47.95
49397;BME280;35615;41.410;2.194;2023-04-05T04:16:11;101697.00;;;15.21;47.97
49397;BME280;35615;41.410;2.194;2023-04-05T04:18:45;101695.78;;;15.11;48.46
49397;BME280;35615;41.410;2.194;2023-04-05T04:21:22;101691.25;;;15.06;48.38
49397;BME280;35615;41.410;2.194;2023-04-05T04:24:11;101695.75;;;15.10;48.17
49397;BME280;35615;41.410;2.194;2023-04-05T04:27:22;101699.47;;;14.93;48.66
49397;BME280;35615;41.410;2.194;2023-04-05T04:30:10;101709.59;;;15.09;48.08
49397;BME280;35615;41.410;2.194;2023-04-05T04:33:01;101711.59;;;14.92;48.56
49397;BME280;35615;41.410;2.194;2023-04-05T04:35:42;101717.94;;;15.00;47.91
49397;BME280;35615;41.410;2.194;2023-04-05T04:38:12;101718.06;;;14.79;48.58
49397;BME280;35615;41.410;2.194;2023-04-05T04:41:09;101718.66;;;14.72;48.67
49397;BME280;35615;41.410;2.194;2023-04-05T04:44:06;101715.97;;;14.69;48.79
49397;BME280;35615;41.410;2.194;2023-04-05T04:46:39;101717.78;;;14.72;49.00
49397;BME280;35615;41.410;2.194;2023-04-05T04:49:28;101715.13;;;14.70;48.30
49397;BME280;35615;41.410;2.194;2023-04-05T04:51:58;101716.91;;;14.71;48.31
49397;BME280;35615;41.410;2.194;2023-04-05T04:54:26;101723.13;;;14.75;48.33
49397;BME280;35615;41.410;2.194;2023-04-05T04:56:53;101720.72;;;14.81;48.32
49397;BME280;35615;41.410;2.194;2023-04-05T04:59:20;101724.19;;;14.81;47.97
49397;BME280;35615;41.410;2.194;2023-04-05T05:01:51;101723.25;;;14.79;47.99
49397;BME280;35615;41.410;2.194;2023-04-05T05:04:21;101729.84;;;14.94;47.79
49397;BME280;35615;41.410;2.194;2023-04-05T05:06:51;101732.53;;;14.73;48.34
49397;BME280;35615;41.410;2.194;2023-04-05T05:09:21;101734.59;;;14.81;47.64
49397;BME280;35615;41.410;2.194;2023-04-05T05:11:53;101733.38;;;14.72;48.08
49397;BME280;35615;41.410;2.194;2023-04-05T05:14:22;101728.66;;;14.62;48.32
49397;BME280;35615;41.410;2.194;2023-04-05T05:16:49;101740.44;;;14.74;48.01
49397;BME280;35615;41.410;2.194;2023-04-05T05:19:18;101748.28;;;14.76;48.21
49397;BME280;35615;41.410;2.194;2023-04-05T05:21:49;101743.84;;;14.73;48.22
49397;BME280;35615;41.410;2.194;2023-04-05T05:24:19;101748.88;;;14.69;48.50
49397;BME280;35615;41.410;2.194;2023-04-05T05:26:52;101748.16;;;14.73;48.37
49397;BME280;35615;41.410;2.194;2023-04-05T05:29:22;101736.47;;;14.62;48.32
49397;BME280;35615;41.410;2.194;2023-04-05T05:31:49;101740.38;;;14.50;48.83
49397;BME280;35615;41.410;2.194;2023-04-05T05:34:20;101745.63;;;14.52;48.44
49397;BME280;35615;41.410;2.194;2023-04-05T05:36:55;101751.66;;;14.51;48.50
49397;BME280;35615;41.410;2.194;2023-04-05T05:39:23;101754.59;;;14.38;48.41
49397;BME280;35615;41.410;2.194;2023-04-05T05:41:51;101754.50;;;14.35;48.39
49397;BME280;35615;41.410;2.194;2023-04-05T05:44:20;101747.81;;;14.41;48.43
49397;BME280;35615;41.410;2.194;2023-04-05T05:46:47;101758.59;;;14.30;48.14
49397;BME280;35615;41.410;2.194;2023-04-05T05:49:17;101754.13;;;14.25;48.38
49397;BME280;35615;41.410;2.194;2023-04-05T05:51:44;101759.91;;;14.41;47.85
49397;BME280;35615;41.410;2.194;2023-04-05T05:54:15;101767.53;;;14.36;48.10
49397;BME280;35615;41.410;2.194;2023-04-05T05:56:44;101768.28;;;14.55;47.36
49397;BME280;35615;41.410;2.194;2023-04-05T05:59:11;101769.78;;;14.27;48.04
49397;BME280;35615;41.410;2.194;2023-04-05T06:01:39;101774.34;;;14.33;47.71
49397;BME280;35615;41.410;2.194;2023-04-05T06:04:08;101773.06;;;14.01;48.90
49397;BME280;35615;41.410;2.194;2023-04-05T06:06:36;101774.69;;;14.19;47.86
49397;BME280;35615;41.410;2.194;2023-04-05T06:09:03;101771.66;;;14.09;48.22
49397;BME280;35615;41.410;2.194;2023-04-05T06:11:30;101791.06;;;14.18;47.63
49397;BME280;35615;41.410;2.194;2023-04-05T06:14:01;101789.16;;;14.35;47.53
49397;BME280;35615;41.410;2.194;2023-04-05T06:16:30;101786.44;;;14.32;47.70
49397;BME280;35615;41.410;2.194;2023-04-05T06:18:58;101789.97;;;14.12;47.82
49397;BME280;35615;41.410;2.194;2023-04-05T06:21:29;101782.47;;;14.19;47.66
49397;BME280;35615;41.410;2.194;2023-04-05T06:24:07;101784.78;;;14.12;47.84
49397;BME280;35615;41.410;2.194;2023-04-05T06:26:37;101792.69;;;14.15;48.37
49397;BME280;35615;41.410;2.194;2023-04-05T06:29:07;101791.22;;;14.21;47.87
49397;BME280;35615;41.410;2.194;2023-04-05T06:31:35;101794.31;;;14.34;47.86
49397;BME280;35615;41.410;2.194;2023-04-05T06:34:02;101797.97;;;14.39;47.82
49397;BME280;35615;41.410;2.194;2023-04-05T06:36:39;101800.78;;;14.22;48.20
49397;BME280;35615;41.410;2.194;2023-04-05T06:39:07;101807.25;;;14.32;47.65
49397;BME280;35615;41.410;2.194;2023-04-05T06:41:35;101799.88;;;14.43;47.87
49397;BME280;35615;41.410;2.194;2023-04-05T06:44:02;101807.28;;;14.55;47.33
49397;BME280;35615;41.410;2.194;2023-04-05T06:46:33;101809.69;;;14.29;47.94
49397;BME280;35615;41.410;2.194;2023-04-05T06:49:03;101807.28;;;14.11;47.89
49397;BME280;35615;41.410;2.194;2023-04-05T06:51:30;101813.28;;;14.10;48.27
49397;BME280;35615;41.410;2.194;2023-04-05T06:54:03;101821.69;;;14.25;48.29
49397;BME280;35615;41.410;2.194;2023-04-05T06:56:30;101814.06;;;14.51;47.11
49397;BME280;35615;41.410;2.194;2023-04-05T06:59:01;101830.09;;;14.41;47.72
49397;BME280;35615;41.410;2.194;2023-04-05T07:01:28;101827.22;;;14.54;47.36
49397;BME280;35615;41.410;2.194;2023-04-05T07:04:01;101826.50;;;14.58;47.27
49397;BME280;35615;41.410;2.194;2023-04-05T07:06:48;101818.97;;;14.43;47.78
49397;BME280;35615;41.410;2.194;2023-04-05T07:09:15;101817.88;;;14.59;47.33
49397;BME280;35615;41.410;2.194;2023-04-05T07:11:42;101817.97;;;14.62;47.25
49397;BME280;35615;41.410;2.194;2023-04-05T07:14:10;101819.16;;;14.70;47.29
49397;BME280;35615;41.410;2.194;2023-04-05T07:16:37;101818.53;;;14.76;47.29
49397;BME280;35615;41.410;2.194;2023-04-05T07:19:07;101817.22;;;14.87;46.94
49397;BME280;35615;41.410;2.194;2023-04-05T07:21:35;101810.41;;;14.91;46.93
49397;BME280;35615;41.410;2.194;2023-04-05T07:24:02;101815.25;;;14.81;46.98
49397;BME280;35615;41.410;2.194;2023-04-05T07:26:35;101809.69;;;14.72;46.72
49397;BME280;35615;41.410;2.194;2023-04-05T07:29:06;101807.50;;;14.83;46.83
49397;BME280;35615;41.410;2.194;2023-04-05T07:31:41;101801.28;;;15.02;46.64
49397;BME280;35615;41.410;2.194;2023-04-05T07:34:09;101805.34;;;14.95;46.44
49397;BME280;35615;41.410;2.194;2023-04-05T07:36:36;101803.19;;;15.30;45.93
49397;BME280;35615;41.410;2.194;2023-04-05T07:39:03;101792.38;;;15.19;45.90
49397;BME280;35615;41.410;2.194;2023-04-05T07:41:31;101791.97;;;15.32;46.06
49397;BME280;35615;41.410;2.194;2023-04-05T07:44:01;101793.31;;;14.97;46.08
49397;BME280;35615;41.410;2.194;2023-04-05T07:46:29;101794.69;;;15.35;45.70
49397;BME280;35615;41.410;2.194;2023-04-05T07:49:06;101796.00;;;15.24;45.96
49397;BME280;35615;41.410;2.194;2023-04-05T07:51:33;101796.91;;;15.50;45.56
49397;BME280;35615;41.410;2.194;2023-04-05T07:54:06;101798.53;;;15.71;44.86
49397;BME280;35615;41.410;2.194;2023-04-05T07:56:36;101804.91;;;15.79;44.17
49397;BME280;35615;41.410;2.194;2023-04-05T07:59:09;101794.34;;;15.74;43.54
49397;BME280;35615;41.410;2.194;2023-04-05T08:01:39;101800.56;;;16.06;43.83
49397;BME280;35615;41.410;2.194;2023-04-05T08:04:08;101803.00;;;16.00;43.40
49397;BME280;35615;41.410;2.194;2023-04-05T08:06:40;101806.06;;;16.14;42.80
49397;BME280;35615;41.410;2.194;2023-04-05T08:09:07;101800.22;;;16.49;43.03
49397;BME280;35615;41.410;2.194;2023-04-05T08:11:37;101796.75;;;16.77;42.81
49397;BME280;35615;41.410;2.194;2023-04-05T08:14:04;101802.22;;;16.85;41.67
49397;BME280;35615;41.410;2.194;2023-04-05T08:16:35;101796.88;;;17.12;41.25
49397;BME280;35615;41.410;2.194;2023-04-05T08:19:03;101801.00;;;17.35;41.25
49397;BME280;35615;41.410;2.194;2023-04-05T08:21:32;101800.53;;;17.50;40.54
49397;BME280;35615;41.410;2.194;2023-04-05T08:23:59;101793.78;;;17.91;40.11
49397;BME280;35615;41.410;2.194;2023-04-05T08:26:27;101796.38;;;17.90;39.20
49397;BME280;35615;41.410;2.194;2023-04-05T08:28:54;101794.34;;;18.14;39.27
49397;BME280;35615;41.410;2.194;2023-04-05T08:31:21;101794.41;;;18.55;38.98
49397;BME280;35615;41.410;2.194;2023-04-05T08:33:49;101797.81;;;18.90;38.60
49397;BME280;35615;41.410;2.194;2023-04-05T08:36:18;101793.25;;;19.24;37.88
49397;BME280;35615;41.410;2.194;2023-04-05T08:38:49;101796.25;;;19.43;36.94
49397;BME280;35615;41.410;2.194;2023-04-05T08:41:18;101797.75;;;19.76;37.03
49397;BME280;35615;41.410;2.194;2023-04-05T08:43:58;101798.59;;;19.73;35.86
49397;BME280;35615;41.410;2.194;2023-04-05T08:46:32;101794.53;;;19.94;36.13
49397;BME280;35615;41.410;2.194;2023-04-05T08:49:07;101789.44;;;20.03;35.97
49397;BME280;35615;41.410;2.194;2023-04-05T08:51:36;101793.41;;;20.34;36.22
49397;BME280;35615;41.410;2.194;2023-04-05T08:54:10;101780.53;;;20.49;35.34
49397;BME280;35615;41.410;2.194;2023-04-05T08:56:41;101784.72;;;20.38;35.66
49397;BME280;35615;41.410;2.194;2023-04-05T08:59:10;101788.06;;;20.28;35.64
49397;BME280;35615;41.410;2.194;2023-04-05T09:01:45;101781.66;;;20.65;35.88
49397;BME280;35615;41.410;2.194;2023-04-05T09:04:18;101773.00;;;20.74;35.27
49397;BME280;35615;41.410;2.194;2023-04-05T09:06:48;101780.19;;;20.87;35.92
49397;BME280;35615;41.410;2.194;2023-04-05T09:09:19;101775.63;;;20.74;36.56
49397;BME280;35615;41.410;2.194;2023-04-05T09:11:50;101777.91;;;20.49;36.33
49397;BME280;35615;41.410;2.194;2023-04-05T09:14:18;101775.78;;;20.86;36.42
49397;BME280;35615;41.410;2.194;2023-04-05T09:16:46;101788.13;;;20.95;35.69
49397;BME280;35615;41.410;2.194;2023-04-05T09:19:14;101776.81;;;20.99;36.15
49397;BME280;35615;41.410;2.194;2023-04-05T09:22:03;101778.34;;;20.81;34.67
49397;BME280;35615;41.410;2.194;2023-04-05T09:24:43;101777.28;;;20.66;35.62
49397;BME280;35615;41.410;2.194;2023-04-05T09:27:19;101781.06;;;20.87;34.59
49397;BME280;35615;41.410;2.194;2023-04-05T09:29:54;101774.06;;;20.89;34.68
49397;BME280;35615;41.410;2.194;2023-04-05T09:32:26;101778.69;;;21.09;34.31
49397;BME280;35615;41.410;2.194;2023-04-05T09:34:59;101787.56;;;21.18;34.28
49397;BME280;35615;41.410;2.194;2023-04-05T09:37:30;101783.66;;;21.63;33.50
49397;BME280;35615;41.410;2.194;2023-04-05T09:40:03;101786.44;;;20.98;32.99
49397;BME280;35615;41.410;2.194;2023-04-05T09:42:52;101791.00;;;21.16;33.16
49397;BME280;35615;41.410;2.194;2023-04-05T09:45:29;101797.50;;;21.44;33.23
49397;BME280;35615;41.410;2.194;2023-04-05T09:48:04;101796.81;;;21.65;33.47
49397;BME280;35615;41.410;2.194;2023-04-05T09:50:35;101793.31;;;21.66;33.04
49397;BME280;35615;41.410;2.194;2023-04-05T09:53:10;101797.47;;;21.39;33.38
49397;BME280;35615;41.410;2.194;2023-04-05T09:55:43;101789.91;;;21.76;32.77
49397;BME280;35615;41.410;2.194;2023-04-05T09:58:31;101791.28;;;21.39;32.96
49397;BME280;35615;41.410;2.194;2023-04-05T10:00:58;101795.63;;;21.34;34.09
49397;BME280;35615;41.410;2.194;2023-04-05T10:03:47;101795.84;;;21.55;33.00
49397;BME280;35615;41.410;2.194;2023-04-05T10:06:15;101794.19;;;21.63;33.31
49397;BME280;35615;41.410;2.194;2023-04-05T10:08:47;101790.63;;;21.58;32.93
49397;BME280;35615;41.410;2.194;2023-04-05T10:11:17;101792.47;;;21.68;33.05
49397;BME280;35615;41.410;2.194;2023-04-05T10:13:45;101786.38;;;21.74;32.43
49397;BME280;35615;41.410;2.194;2023-04-05T10:16:20;101789.50;;;21.35;31.51
49397;BME280;35615;41.410;2.194;2023-04-05T10:18:50;101789.41;;;21.27;31.28
49397;BME280;35615;41.410;2.194;2023-04-05T10:21:28;101793.63;;;21.14;30.84
49397;BME280;35615;41.410;2.194;2023-04-05T10:26:58;101784.63;;;21.74;30.78
49397;BME280;35615;41.410;2.194;2023-04-05T10:29:46;101780.84;;;22.54;30.82
49397;BME280;35615;41.410;2.194;2023-04-05T10:33:06;101791.38;;;22.51;32.28
49397;BME280;35615;41.410;2.194;2023-04-05T10:35:20;101786.53;;;21.92;33.72
49397;BME280;35615;41.410;2.194;2023-04-05T10:38:16;101784.09;;;22.14;33.23
49397;BME280;35615;41.410;2.194;2023-04-05T10:40:59;101773.63;;;22.18;33.62
49397;BME280;35615;41.410;2.194;2023-04-05T10:43:33;101777.34;;;22.58;32.89
49397;BME280;35615;41.410;2.194;2023-04-05T10:46:03;101778.28;;;22.70;32.64
49397;BME280;35615;41.410;2.194;2023-04-05T10:48:57;101781.72;;;22.52;32.05
49397;BME280;35615;41.410;2.194;2023-04-05T10:51:27;101774.50;;;22.17;33.10
49397;BME280;35615;41.410;2.194;2023-04-05T10:53:55;101778.81;;;22.08;33.43
49397;BME280;35615;41.410;2.194;2023-04-05T10:56:23;101786.19;;;21.53;33.40
49397;BME280;35615;41.410;2.194;2023-04-05T10:58:52;101764.66;;;21.07;33.84
49397;BME280;35615;41.410;2.194;2023-04-05T11:01:22;101770.78;;;21.95;33.63
49397;BME280;35615;41.410;2.194;2023-04-05T11:04:13;101763.53;;;21.70;34.08
49397;BME280;35615;41.410;2.194;2023-04-05T11:06:41;101764.19;;;21.41;34.51
49397;BME280;35615;41.410;2.194;2023-04-05T11:09:16;101768.31;;;21.21;34.53
49397;BME280;35615;41.410;2.194;2023-04-05T11:14:25;101781.94;;;20.89;34.26
49397;BME280;35615;41.410;2.194;2023-04-05T11:16:55;101773.91;;;21.52;34.80
49397;BME280;35615;41.410;2.194;2023-04-05T11:22:25;101773.56;;;21.20;35.92
49397;BME280;35615;41.410;2.194;2023-04-05T11:24:58;101766.94;;;21.55;35.17
49397;BME280;35615;41.410;2.194;2023-04-05T11:27:32;101764.72;;;21.16;35.16
49397;BME280;35615;41.410;2.194;2023-04-05T11:30:02;101763.06;;;21.24;35.48
49397;BME280;35615;41.410;2.194;2023-04-05T11:32:43;101776.16;;;21.18;35.69
49397;BME280;35615;41.410;2.194;2023-04-05T11:35:18;101773.28;;;20.95;35.63
49397;BME280;35615;41.410;2.194;2023-04-05T11:40:36;101761.16;;;21.08;36.69
49397;BME280;35615;41.410;2.194;2023-04-05T11:43:14;101758.84;;;21.37;36.95
49397;BME280;35615;41.410;2.194;2023-04-05T11:45:48;101766.47;;;21.15;37.92
49397;BME280;35615;41.410;2.194;2023-04-05T11:48:27;101761.69;;;21.61;37.33
49397;BME280;35615;41.410;2.194;2023-04-05T11:50:56;101766.94;;;21.57;37.64
49397;BME280;35615;41.410;2.194;2023-04-05T11:53:24;101754.00;;;21.83;37.29
49397;BME280;35615;41.410;2.194;2023-04-05T11:56:08;101745.66;;;22.42;37.05
49397;BME280;35615;41.410;2.194;2023-04-05T11:58:43;101760.03;;;21.72;37.93
49397;BME280;35615;41.410;2.194;2023-04-05T12:01:14;101750.16;;;21.44;39.34
49397;BME280;35615;41.410;2.194;2023-04-05T12:03:43;101749.53;;;21.72;38.48
49397;BME280;35615;41.410;2.194;2023-04-05T12:07:06;101732.06;;;21.78;38.95
49397;BME280;35615;41.410;2.194;2023-04-05T12:10:18;101748.72;;;20.95;40.94
49397;BME280;35615;41.410;2.194;2023-04-05T12:12:51;101735.47;;;21.66;40.36
49397;BME280;35615;41.410;2.194;2023-04-05T12:15:22;101746.06;;;21.75;40.18
49397;BME280;35615;41.410;2.194;2023-04-05T12:18:01;101748.31;;;21.35;41.38
49397;BME280;35615;41.410;2.194;2023-04-05T12:20:39;101739.88;;;21.70;40.68
49397;BME280;35615;41.410;2.194;2023-04-05T12:23:20;101734.75;;;21.87;40.77
49397;BME280;35615;41.410;2.194;2023-04-05T12:26:11;101741.19;;;21.25;40.80
49397;BME280;35615;41.410;2.194;2023-04-05T12:28:59;101730.28;;;21.73;40.11
49397;BME280;35615;41.410;2.194;2023-04-05T12:31:43;101732.03;;;21.76;38.56
49397;BME280;35615;41.410;2.194;2023-04-05T12:34:15;101730.22;;;21.70;37.10
49397;BME280;35615;41.410;2.194;2023-04-05T12:37:08;101726.56;;;22.87;37.21
49397;BME280;35615;41.410;2.194;2023-04-05T12:39:42;101733.53;;;22.77;37.19
49397;BME280;35615;41.410;2.194;2023-04-05T12:45:14;101715.16;;;22.94;36.67
49397;BME280;35615;41.410;2.194;2023-04-05T12:47:58;101702.88;;;23.04;36.49
49397;BME280;35615;41.410;2.194;2023-04-05T12:50:47;101707.34;;;23.54;35.76
49397;BME280;35615;41.410;2.194;2023-04-05T12:53:32;101697.66;;;23.24;36.79
49397;BME280;35615;41.410;2.194;2023-04-05T12:59:35;101696.72;;;22.93;37.59
49397;BME280;35615;41.410;2.194;2023-04-05T13:02:29;101694.88;;;22.75;38.13
49397;BME280;35615;41.410;2.194;2023-04-05T13:05:08;101683.56;;;23.09;36.99
49397;BME280;35615;41.410;2.194;2023-04-05T13:07:43;101687.94;;;22.97;37.36
49397;BME280;35615;41.410;2.194;2023-04-05T13:13:19;101677.31;;;22.81;36.70
49397;BME280;35615;41.410;2.194;2023-04-05T13:15:56;101681.78;;;22.84;36.17
49397;BME280;35615;41.410;2.194;2023-04-05T13:18:52;101669.53;;;23.29;35.21
49397;BME280;35615;41.410;2.194;2023-04-05T13:21:37;101667.78;;;23.66;33.64
49397;BME280;35615;41.410;2.194;2023-04-05T13:24:25;101653.56;;;24.23;32.29
49397;BME280;35615;41.410;2.194;2023-04-05T13:27:05;101661.63;;;23.76;30.78
49397;BME280;35615;41.410;2.194;2023-04-05T13:29:49;101652.75;;;24.01;30.51
49397;BME280;35615;41.410;2.194;2023-04-05T13:32:19;101652.66;;;24.27;29.34
49397;BME280;35615;41.410;2.194;2023-04-05T13:34:51;101665.94;;;24.11;27.83
49397;BME280;35615;41.410;2.194;2023-04-05T13:37:32;101665.97;;;23.92;26.96
49397;BME280;35615;41.410;2.194;2023-04-05T13:40:18;101651.91;;;23.96;25.28
49397;BME280;35615;41.410;2.194;2023-04-05T13:42:57;101661.63;;;23.76;24.48
49397;BME280;35615;41.410;2.194;2023-04-05T13:45:32;101653.56;;;24.23;23.32
49397;BME280;35615;41.410;2.194;2023-04-05T13:48:27;101643.09;;;23.94;23.90
49397;BME280;35615;41.410;2.194;2023-04-05T13:53:57;101641.31;;;24.04;22.86
49397;BME280;35615;41.410;2.194;2023-04-05T13:56:34;101630.78;;;23.93;23.34